sensor_id;sensor_type;location;lat;lon;timestamp;temperature;humidity
21570;DHT22;57598;50.888;4.746;2023-06-14T00:02:05;21.90;60.80
21570;DHT22;57598;50.888;4.746;2023-06-14T00:04:35;21.90;60.80
21570;DHT22;57598;50.888;4.746;2023-06-14T00:07:05;21.80;61.10
21570;DHT22;57598;50.888;4.746;2023-06-14T00:09:34;21.70;60.80
21570;DHT22;57598;50.888;4.746;2023-06-14T00:12:01;21.70;60.90
21570;DHT22;57598;50.888;4.746;2023-06-14T00:14:28;21.70;61.30
21570;DHT22;57598;50.888;4.746;2023-06-14T00:16:56;21.70;61.10
21570;DHT22;57598;50.888;4.746;2023-06-14T00:19:24;21.60;61.50
21570;DHT22;57598;50.888;4.746;2023-06-14T00:21:51;21.50;61.40
21570;DHT22;57598;50.888;4.746;2023-06-14T00:24:18;21.50;61.70
21570;DHT22;57598;50.888;4.746;2023-06-14T00:26:46;21.50;61.70
21570;DHT22;57598;50.888;4.746;2023-06-14T00:29:13;21.50;61.80
21570;DHT22;57598;50.888;4.746;2023-06-14T00:31:41;21.50;61.60
21570;DHT22;57598;50.888;4.746;2023-06-14T00:34:09;21.50;61.50
21570;DHT22;57598;50.888;4.746;2023-06-14T00:36:36;21.40;61.90
21570;DHT22;57598;50.888;4.746;2023-06-14T00:39:03;21.40;62.10
21570;DHT22;57598;50.888;4.746;2023-06-14T00:41:30;21.30;62.20
21570;DHT22;57598;50.888;4.746;2023-06-14T00:43:57;21.20;62.60
21570;DHT22;57598;50.888;4.746;2023-06-14T00:46:25;21.20;62.30
21570;DHT22;57598;50.888;4.746;2023-06-14T00:48:52;21.20;62.70
21570;DHT22;57598;50.888;4.746;2023-06-14T00:51:21;21.10;62.90
21570;DHT22;57598;50.888;4.746;2023-06-14T00:53:48;21.10;63.00
21570;DHT22;57598;50.888;4.746;2023-06-14T00:56:16;21.10;63.10
21570;DHT22;57598;50.888;4.746;2023-06-14T00:58:46;21.00;63.50
21570;DHT22;57598;50.888;4.746;2023-06-14T01:01:13;21.00;63.50
21570;DHT22;57598;50.888;4.746;2023-06-14T01:03:40;20.90;63.80
21570;DHT22;57598;50.888;4.746;2023-06-14T01:06:15;20.90;64.10
21570;DHT22;57598;50.888;4.746;2023-06-14T01:09:01;20.80;64.20
21570;DHT22;57598;50.888;4.746;2023-06-14T01:11:32;20.90;64.00
21570;DHT22;57598;50.888;4.746;2023-06-14T01:14:02;21.00;64.00
21570;DHT22;57598;50.888;4.746;2023-06-14T01:16:30;20.90;64.30
21570;DHT22;57598;50.888;4.746;2023-06-14T01:18:58;20.90;64.00
21570;DHT22;57598;50.888;4.746;2023-06-14T01:21:25;20.90;64.10
21570;DHT22;57598;50.888;4.746;2023-06-14T01:23:55;20.80;64.20
21570;DHT22;57598;50.888;4.746;2023-06-14T01:26:22;20.70;65.50
21570;DHT22;57598;50.888;4.746;2023-06-14T01:28:52;20.30;67.20
21570;DHT22;57598;50.888;4.746;2023-06-14T01:31:24;19.90;69.40
21570;DHT22;57598;50.888;4.746;2023-06-14T01:33:53;19.80;69.80
21570;DHT22;57598;50.888;4.746;2023-06-14T01:36:20;19.80;69.60
21570;DHT22;57598;50.888;4.746;2023-06-14T01:38:50;19.90;69.40
21570;DHT22;57598;50.888;4.746;2023-06-14T01:41:21;19.90;69.30
21570;DHT22;57598;50.888;4.746;2023-06-14T01:43:49;20.00;68.90
21570;DHT22;57598;50.888;4.746;2023-06-14T01:46:17;20.00;69.10
21570;DHT22;57598;50.888;4.746;2023-06-14T01:48:44;20.10;68.70
21570;DHT22;57598;50.888;4.746;2023-06-14T01:51:11;20.20;68.20
21570;DHT22;57598;50.888;4.746;2023-06-14T01:53:38;20.00;69.10
21570;DHT22;57598;50.888;4.746;2023-06-14T01:56:06;19.90;68.80
21570;DHT22;57598;50.888;4.746;2023-06-14T01:58:34;19.90;69.80
21570;DHT22;57598;50.888;4.746;2023-06-14T02:01:02;19.80;69.50
21570;DHT22;57598;50.888;4.746;2023-06-14T02:03:29;19.70;69.30
21570;DHT22;57598;50.888;4.746;2023-06-14T02:05:56;19.60;69.60
21570;DHT22;57598;50.888;4.746;2023-06-14T02:08:23;19.70;69.50
21570;DHT22;57598;50.888;4.746;2023-06-14T02:10:50;19.80;69.10
21570;DHT22;57598;50.888;4.746;2023-06-14T02:13:17;19.80;68.60
21570;DHT22;57598;50.888;4.746;2023-06-14T02:15:46;19.80;68.40
21570;DHT22;57598;50.888;4.746;2023-06-14T02:18:16;19.80;68.40
21570;DHT22;57598;50.888;4.746;2023-06-14T02:20:43;19.80;68.80
21570;DHT22;57598;50.888;4.746;2023-06-14T02:23:10;19.70;68.40
21570;DHT22;57598;50.888;4.746;2023-06-14T02:25:37;19.90;68.30
21570;DHT22;57598;50.888;4.746;2023-06-14T02:28:05;19.80;68.50
21570;DHT22;57598;50.888;4.746;2023-06-14T02:30:32;19.80;68.40
21570;DHT22;57598;50.888;4.746;2023-06-14T02:33:00;19.80;68.40
21570;DHT22;57598;50.888;4.746;2023-06-14T02:35:29;19.70;68.50
21570;DHT22;57598;50.888;4.746;2023-06-14T02:37:56;19.70;68.60
21570;DHT22;57598;50.888;4.746;2023-06-14T02:40:24;19.70;68.70
21570;DHT22;57598;50.888;4.746;2023-06-14T02:42:51;19.70;68.70
21570;DHT22;57598;50.888;4.746;2023-06-14T02:45:18;19.60;69.10
21570;DHT22;57598;50.888;4.746;2023-06-14T02:47:46;19.50;69.30
21570;DHT22;57598;50.888;4.746;2023-06-14T02:50:15;19.50;69.60
21570;DHT22;57598;50.888;4.746;2023-06-14T02:52:42;19.50;69.60
21570;DHT22;57598;50.888;4.746;2023-06-14T02:55:10;19.50;69.80
21570;DHT22;57598;50.888;4.746;2023-06-14T02:57:37;19.40;70.30
21570;DHT22;57598;50.888;4.746;2023-06-14T03:00:05;19.30;69.90
21570;DHT22;57598;50.888;4.746;2023-06-14T03:02:35;19.30;70.40
21570;DHT22;57598;50.888;4.746;2023-06-14T03:05:02;19.30;70.50
21570;DHT22;57598;50.888;4.746;2023-06-14T03:07:31;19.30;70.70
21570;DHT22;57598;50.888;4.746;2023-06-14T03:09:58;19.20;70.70
21570;DHT22;57598;50.888;4.746;2023-06-14T03:12:25;19.20;71.00
21570;DHT22;57598;50.888;4.746;2023-06-14T03:14:52;19.20;70.80
21570;DHT22;57598;50.888;4.746;2023-06-14T03:17:22;19.10;71.00
21570;DHT22;57598;50.888;4.746;2023-06-14T03:19:49;19.00;71.30
21570;DHT22;57598;50.888;4.746;2023-06-14T03:22:16;19.00;71.40
21570;DHT22;57598;50.888;4.746;2023-06-14T03:24:45;19.20;71.30
21570;DHT22;57598;50.888;4.746;2023-06-14T03:27:12;19.00;71.70
21570;DHT22;57598;50.888;4.746;2023-06-14T03:29:40;19.00;71.50
21570;DHT22;57598;50.888;4.746;2023-06-14T03:32:07;19.00;72.00
21570;DHT22;57598;50.888;4.746;2023-06-14T03:34:35;19.00;72.00
21570;DHT22;57598;50.888;4.746;2023-06-14T03:37:04;19.00;72.00
21570;DHT22;57598;50.888;4.746;2023-06-14T03:39:31;18.90;72.40
21570;DHT22;57598;50.888;4.746;2023-06-14T03:41:59;19.00;72.10
21570;DHT22;57598;50.888;4.746;2023-06-14T03:44:27;18.80;72.90
21570;DHT22;57598;50.888;4.746;2023-06-14T03:46:54;18.70;74.00
21570;DHT22;57598;50.888;4.746;2023-06-14T03:49:21;18.70;73.60
21570;DHT22;57598;50.888;4.746;2023-06-14T03:51:48;18.70;73.70
21570;DHT22;57598;50.888;4.746;2023-06-14T03:54:16;18.60;73.80
21570;DHT22;57598;50.888;4.746;2023-06-14T03:56:43;18.50;74.60
21570;DHT22;57598;50.888;4.746;2023-06-14T03:59:12;18.40;75.40
21570;DHT22;57598;50.888;4.746;2023-06-14T04:01:39;18.50;74.90
21570;DHT22;57598;50.888;4.746;2023-06-14T04:04:12;18.50;74.60
21570;DHT22;57598;50.888;4.746;2023-06-14T04:06:41;18.70;74.50
21570;DHT22;57598;50.888;4.746;2023-06-14T04:09:09;18.70;74.10
21570;DHT22;57598;50.888;4.746;2023-06-14T04:11:36;18.60;74.20
21570;DHT22;57598;50.888;4.746;2023-06-14T04:14:03;18.60;74.20
21570;DHT22;57598;50.888;4.746;2023-06-14T04:16:31;18.60;74.20
21570;DHT22;57598;50.888;4.746;2023-06-14T04:18:58;18.60;73.80
21570;DHT22;57598;50.888;4.746;2023-06-14T04:21:25;18.70;74.10
21570;DHT22;57598;50.888;4.746;2023-06-14T04:23:54;18.70;73.80
21570;DHT22;57598;50.888;4.746;2023-06-14T04:26:22;18.80;73.70
21570;DHT22;57598;50.888;4.746;2023-06-14T04:28:55;18.90;73.70
21570;DHT22;57598;50.888;4.746;2023-06-14T04:31:26;18.80;73.90
21570;DHT22;57598;50.888;4.746;2023-06-14T04:33:56;18.80;73.50
21570;DHT22;57598;50.888;4.746;2023-06-14T04:36:24;19.00;73.20
21570;DHT22;57598;50.888;4.746;2023-06-14T04:38:53;19.00;73.70
21570;DHT22;57598;50.888;4.746;2023-06-14T04:41:21;19.00;73.70
21570;DHT22;57598;50.888;4.746;2023-06-14T04:43:48;19.00;73.40
21570;DHT22;57598;50.888;4.746;2023-06-14T04:46:15;19.00;73.30
21570;DHT22;57598;50.888;4.746;2023-06-14T04:48:44;19.00;73.60
21570;DHT22;57598;50.888;4.746;2023-06-14T04:51:12;19.00;73.20
21570;DHT22;57598;50.888;4.746;2023-06-14T04:53:41;19.10;73.50
21570;DHT22;57598;50.888;4.746;2023-06-14T04:56:09;19.20;73.90
21570;DHT22;57598;50.888;4.746;2023-06-14T04:58:37;19.30;73.20
21570;DHT22;57598;50.888;4.746;2023-06-14T05:01:04;19.20;73.20
21570;DHT22;57598;50.888;4.746;2023-06-14T05:03:31;19.20;72.60
21570;DHT22;57598;50.888;4.746;2023-06-14T05:06:00;19.30;73.90
21570;DHT22;57598;50.888;4.746;2023-06-14T05:08:28;19.40;73.30
21570;DHT22;57598;50.888;4.746;2023-06-14T05:10:55;19.50;73.30
21570;DHT22;57598;50.888;4.746;2023-06-14T05:13:22;19.50;73.40
21570;DHT22;57598;50.888;4.746;2023-06-14T05:15:49;19.60;72.90
21570;DHT22;57598;50.888;4.746;2023-06-14T05:18:17;19.60;72.70
21570;DHT22;57598;50.888;4.746;2023-06-14T05:20:44;19.70;73.40
21570;DHT22;57598;50.888;4.746;2023-06-14T05:23:11;19.60;72.60
21570;DHT22;57598;50.888;4.746;2023-06-14T05:25:42;19.70;72.70
21570;DHT22;57598;50.888;4.746;2023-06-14T05:28:10;19.80;72.30
21570;DHT22;57598;50.888;4.746;2023-06-14T05:30:38;19.90;72.40
21570;DHT22;57598;50.888;4.746;2023-06-14T05:33:05;20.00;72.60
21570;DHT22;57598;50.888;4.746;2023-06-14T05:35:32;20.00;71.10
21570;DHT22;57598;50.888;4.746;2023-06-14T05:37:59;20.00;71.10
21570;DHT22;57598;50.888;4.746;2023-06-14T05:40:26;20.30;70.30
21570;DHT22;57598;50.888;4.746;2023-06-14T05:42:55;20.40;70.50
21570;DHT22;57598;50.888;4.746;2023-06-14T05:45:22;20.60;71.10
21570;DHT22;57598;50.888;4.746;2023-06-14T05:47:49;20.70;70.20
21570;DHT22;57598;50.888;4.746;2023-06-14T05:50:16;20.80;70.70
21570;DHT22;57598;50.888;4.746;2023-06-14T05:52:43;21.00;69.70
21570;DHT22;57598;50.888;4.746;2023-06-14T05:55:11;21.10;69.50
21570;DHT22;57598;50.888;4.746;2023-06-14T05:57:38;21.40;69.50
21570;DHT22;57598;50.888;4.746;2023-06-14T06:00:08;21.50;68.00
21570;DHT22;57598;50.888;4.746;2023-06-14T06:02:40;21.70;67.60
21570;DHT22;57598;50.888;4.746;2023-06-14T06:05:08;21.80;67.50
21570;DHT22;57598;50.888;4.746;2023-06-14T06:07:35;21.80;68.80
21570;DHT22;57598;50.888;4.746;2023-06-14T06:10:03;22.00;67.40
21570;DHT22;57598;50.888;4.746;2023-06-14T06:12:30;21.90;67.30
21570;DHT22;57598;50.888;4.746;2023-06-14T06:14:58;22.20;67.60
21570;DHT22;57598;50.888;4.746;2023-06-14T06:17:26;22.30;66.90
21570;DHT22;57598;50.888;4.746;2023-06-14T06:19:54;22.60;64.90
21570;DHT22;57598;50.888;4.746;2023-06-14T06:22:21;22.70;65.70
21570;DHT22;57598;50.888;4.746;2023-06-14T06:24:48;22.80;64.50
21570;DHT22;57598;50.888;4.746;2023-06-14T06:27:15;22.90;65.30
21570;DHT22;57598;50.888;4.746;2023-06-14T06:29:45;23.00;65.10
21570;DHT22;57598;50.888;4.746;2023-06-14T06:32:14;23.00;64.20
21570;DHT22;57598;50.888;4.746;2023-06-14T06:34:42;23.10;63.70
21570;DHT22;57598;50.888;4.746;2023-06-14T06:37:09;23.30;63.20
21570;DHT22;57598;50.888;4.746;2023-06-14T06:39:36;23.60;62.10
21570;DHT22;57598;50.888;4.746;2023-06-14T06:42:03;23.50;61.40
21570;DHT22;57598;50.888;4.746;2023-06-14T06:44:30;23.60;61.30
21570;DHT22;57598;50.888;4.746;2023-06-14T06:46:58;23.70;60.80
21570;DHT22;57598;50.888;4.746;2023-06-14T06:49:25;24.00;60.30
21570;DHT22;57598;50.888;4.746;2023-06-14T06:52:04;24.30;59.20
21570;DHT22;57598;50.888;4.746;2023-06-14T06:54:32;24.50;59.50
21570;DHT22;57598;50.888;4.746;2023-06-14T06:56:59;24.50;59.20
21570;DHT22;57598;50.888;4.746;2023-06-14T06:59:27;24.60;58.70
21570;DHT22;57598;50.888;4.746;2023-06-14T07:01:54;24.70;59.40
21570;DHT22;57598;50.888;4.746;2023-06-14T07:04:21;24.80;59.20
21570;DHT22;57598;50.888;4.746;2023-06-14T07:06:48;25.10;58.90
21570;DHT22;57598;50.888;4.746;2023-06-14T07:09:17;25.20;58.80
21570;DHT22;57598;50.888;4.746;2023-06-14T07:11:46;25.10;58.40
21570;DHT22;57598;50.888;4.746;2023-06-14T07:14:13;25.50;59.10
21570;DHT22;57598;50.888;4.746;2023-06-14T07:16:40;25.60;58.40
21570;DHT22;57598;50.888;4.746;2023-06-14T07:19:08;25.70;58.50
21570;DHT22;57598;50.888;4.746;2023-06-14T07:21:35;25.90;58.50
21570;DHT22;57598;50.888;4.746;2023-06-14T07:24:05;26.00;58.90
21570;DHT22;57598;50.888;4.746;2023-06-14T07:26:34;26.20;57.90
21570;DHT22;57598;50.888;4.746;2023-06-14T07:29:02;26.60;57.00
21570;DHT22;57598;50.888;4.746;2023-06-14T07:31:29;26.60;56.50
21570;DHT22;57598;50.888;4.746;2023-06-14T07:33:56;26.60;56.60
21570;DHT22;57598;50.888;4.746;2023-06-14T07:36:23;26.60;57.00
21570;DHT22;57598;50.888;4.746;2023-06-14T07:38:50;26.50;56.30
21570;DHT22;57598;50.888;4.746;2023-06-14T07:41:20;26.70;56.80
21570;DHT22;57598;50.888;4.746;2023-06-14T07:43:48;26.90;56.10
21570;DHT22;57598;50.888;4.746;2023-06-14T07:46:15;27.30;55.80
21570;DHT22;57598;50.888;4.746;2023-06-14T07:48:42;27.40;55.80
21570;DHT22;57598;50.888;4.746;2023-06-14T07:51:09;27.10;54.40
21570;DHT22;57598;50.888;4.746;2023-06-14T07:53:36;27.30;55.30
21570;DHT22;57598;50.888;4.746;2023-06-14T07:56:03;27.20;54.50
21570;DHT22;57598;50.888;4.746;2023-06-14T07:58:30;27.30;53.90
21570;DHT22;57598;50.888;4.746;2023-06-14T08:00:59;27.80;53.50
21570;DHT22;57598;50.888;4.746;2023-06-14T08:03:29;27.80;53.20
21570;DHT22;57598;50.888;4.746;2023-06-14T08:05:56;27.70;53.50
21570;DHT22;57598;50.888;4.746;2023-06-14T08:08:23;28.10;53.50
21570;DHT22;57598;50.888;4.746;2023-06-14T08:10:50;28.20;52.90
21570;DHT22;57598;50.888;4.746;2023-06-14T08:13:17;28.30;52.80
21570;DHT22;57598;50.888;4.746;2023-06-14T08:15:44;28.50;52.40
21570;DHT22;57598;50.888;4.746;2023-06-14T08:18:12;28.60;53.90
21570;DHT22;57598;50.888;4.746;2023-06-14T08:20:39;28.70;53.30
21570;DHT22;57598;50.888;4.746;2023-06-14T08:23:07;28.70;52.70
21570;DHT22;57598;50.888;4.746;2023-06-14T08:25:34;29.00;52.50
21570;DHT22;57598;50.888;4.746;2023-06-14T08:28:01;28.80;52.40
21570;DHT22;57598;50.888;4.746;2023-06-14T08:30:28;28.90;52.60
21570;DHT22;57598;50.888;4.746;2023-06-14T08:32:55;29.10;52.00
21570;DHT22;57598;50.888;4.746;2023-06-14T08:35:24;29.00;52.30
21570;DHT22;57598;50.888;4.746;2023-06-14T08:37:51;28.60;51.30
21570;DHT22;57598;50.888;4.746;2023-06-14T08:40:20;28.90;50.60
21570;DHT22;57598;50.888;4.746;2023-06-14T08:42:51;28.70;51.40
21570;DHT22;57598;50.888;4.746;2023-06-14T08:45:19;29.40;50.70
21570;DHT22;57598;50.888;4.746;2023-06-14T08:47:47;29.50;50.50
21570;DHT22;57598;50.888;4.746;2023-06-14T08:50:20;30.00;50.60
21570;DHT22;57598;50.888;4.746;2023-06-14T08:52:53;30.30;49.00
21570;DHT22;57598;50.888;4.746;2023-06-14T08:55:22;29.90;48.70
21570;DHT22;57598;50.888;4.746;2023-06-14T08:57:51;30.20;48.90
21570;DHT22;57598;50.888;4.746;2023-06-14T09:00:20;30.10;48.20
21570;DHT22;57598;50.888;4.746;2023-06-14T09:02:48;30.10;48.80
21570;DHT22;57598;50.888;4.746;2023-06-14T09:05:16;30.40;48.40
21570;DHT22;57598;50.888;4.746;2023-06-14T09:07:44;30.70;47.70
21570;DHT22;57598;50.888;4.746;2023-06-14T09:10:16;30.90;48.50
21570;DHT22;57598;50.888;4.746;2023-06-14T09:12:43;31.00;47.80
21570;DHT22;57598;50.888;4.746;2023-06-14T09:15:10;31.50;47.60
21570;DHT22;57598;50.888;4.746;2023-06-14T09:17:39;31.10;47.90
21570;DHT22;57598;50.888;4.746;2023-06-14T09:20:08;31.20;47.80
21570;DHT22;57598;50.888;4.746;2023-06-14T09:22:36;31.00;47.20
21570;DHT22;57598;50.888;4.746;2023-06-14T09:25:04;30.60;46.80
21570;DHT22;57598;50.888;4.746;2023-06-14T09:27:33;31.10;47.10
21570;DHT22;57598;50.888;4.746;2023-06-14T09:30:01;31.00;46.90
21570;DHT22;57598;50.888;4.746;2023-06-14T09:32:29;30.80;47.20
21570;DHT22;57598;50.888;4.746;2023-06-14T09:34:56;31.10;46.30
21570;DHT22;57598;50.888;4.746;2023-06-14T09:37:27;31.30;45.80
21570;DHT22;57598;50.888;4.746;2023-06-14T09:39:55;31.60;45.80
21570;DHT22;57598;50.888;4.746;2023-06-14T09:42:22;31.90;46.30
21570;DHT22;57598;50.888;4.746;2023-06-14T09:44:54;32.20;43.60
21570;DHT22;57598;50.888;4.746;2023-06-14T09:47:22;31.90;43.80
21570;DHT22;57598;50.888;4.746;2023-06-14T09:49:49;32.30;44.70
21570;DHT22;57598;50.888;4.746;2023-06-14T09:52:18;32.50;42.40
21570;DHT22;57598;50.888;4.746;2023-06-14T09:54:46;32.40;42.40
21570;DHT22;57598;50.888;4.746;2023-06-14T09:57:16;31.80;43.40
21570;DHT22;57598;50.888;4.746;2023-06-14T09:59:44;31.70;45.00
21570;DHT22;57598;50.888;4.746;2023-06-14T10:02:21;31.90;45.10
21570;DHT22;57598;50.888;4.746;2023-06-14T10:04:56;32.30;43.00
21570;DHT22;57598;50.888;4.746;2023-06-14T10:07:26;32.40;40.90
21570;DHT22;57598;50.888;4.746;2023-06-14T10:09:57;32.50;40.90
21570;DHT22;57598;50.888;4.746;2023-06-14T10:12:25;32.60;41.20
21570;DHT22;57598;50.888;4.746;2023-06-14T10:14:53;32.40;41.30
21570;DHT22;57598;50.888;4.746;2023-06-14T10:17:27;32.50;40.50
21570;DHT22;57598;50.888;4.746;2023-06-14T10:20:06;32.80;40.10
21570;DHT22;57598;50.888;4.746;2023-06-14T10:22:43;32.30;41.30
21570;DHT22;57598;50.888;4.746;2023-06-14T10:25:13;32.20;41.80
21570;DHT22;57598;50.888;4.746;2023-06-14T10:27:44;32.50;42.10
21570;DHT22;57598;50.888;4.746;2023-06-14T10:30:15;32.30;41.50
21570;DHT22;57598;50.888;4.746;2023-06-14T10:33:07;32.40;41.30
21570;DHT22;57598;50.888;4.746;2023-06-14T10:35:35;33.40;41.20
21570;DHT22;57598;50.888;4.746;2023-06-14T10:38:09;33.60;39.60
21570;DHT22;57598;50.888;4.746;2023-06-14T10:40:36;33.50;40.00
21570;DHT22;57598;50.888;4.746;2023-06-14T10:43:24;33.30;39.40
21570;DHT22;57598;50.888;4.746;2023-06-14T10:46:16;32.80;39.00
21570;DHT22;57598;50.888;4.746;2023-06-14T10:48:45;33.00;38.70
21570;DHT22;57598;50.888;4.746;2023-06-14T10:51:17;33.30;38.50
21570;DHT22;57598;50.888;4.746;2023-06-14T10:53:46;33.20;39.00
21570;DHT22;57598;50.888;4.746;2023-06-14T10:56:29;33.60;38.10
21570;DHT22;57598;50.888;4.746;2023-06-14T10:58:57;33.50;39.30
21570;DHT22;57598;50.888;4.746;2023-06-14T11:01:32;33.70;39.00
21570;DHT22;57598;50.888;4.746;2023-06-14T11:04:12;33.30;37.80
21570;DHT22;57598;50.888;4.746;2023-06-14T11:06:46;34.10;39.30
21570;DHT22;57598;50.888;4.746;2023-06-14T11:12:32;33.60;38.10
21570;DHT22;57598;50.888;4.746;2023-06-14T11:15:01;34.10;38.30
21570;DHT22;57598;50.888;4.746;2023-06-14T11:17:28;33.90;37.40
21570;DHT22;57598;50.888;4.746;2023-06-14T11:20:09;33.60;38.10
21570;DHT22;57598;50.888;4.746;2023-06-14T11:22:39;33.80;38.30
21570;DHT22;57598;50.888;4.746;2023-06-14T11:25:09;34.10;38.20
21570;DHT22;57598;50.888;4.746;2023-06-14T11:27:36;33.30;38.10
21570;DHT22;57598;50.888;4.746;2023-06-14T11:30:07;33.70;38.50
21570;DHT22;57598;50.888;4.746;2023-06-14T11:32:35;33.90;38.20
21570;DHT22;57598;50.888;4.746;2023-06-14T11:35:02;33.60;38.30
21570;DHT22;57598;50.888;4.746;2023-06-14T11:37:32;33.50;39.50
21570;DHT22;57598;50.888;4.746;2023-06-14T11:39:59;33.70;38.40
21570;DHT22;57598;50.888;4.746;2023-06-14T11:42:27;34.20;39.40
21570;DHT22;57598;50.888;4.746;2023-06-14T11:44:54;34.50;37.80
21570;DHT22;57598;50.888;4.746;2023-06-14T11:47:22;34.20;37.80
21570;DHT22;57598;50.888;4.746;2023-06-14T11:49:49;34.00;37.70
21570;DHT22;57598;50.888;4.746;2023-06-14T11:52:17;33.80;39.50
21570;DHT22;57598;50.888;4.746;2023-06-14T11:54:47;34.60;38.00
21570;DHT22;57598;50.888;4.746;2023-06-14T11:57:15;34.80;37.50
21570;DHT22;57598;50.888;4.746;2023-06-14T11:59:44;34.90;37.90
21570;DHT22;57598;50.888;4.746;2023-06-14T12:02:14;34.80;37.80
21570;DHT22;57598;50.888;4.746;2023-06-14T12:04:42;35.20;38.20
21570;DHT22;57598;50.888;4.746;2023-06-14T12:07:09;34.60;37.30
21570;DHT22;57598;50.888;4.746;2023-06-14T12:09:38;34.80;37.20
21570;DHT22;57598;50.888;4.746;2023-06-14T12:12:07;34.50;37.10
21570;DHT22;57598;50.888;4.746;2023-06-14T12:14:34;34.30;37.30
21570;DHT22;57598;50.888;4.746;2023-06-14T12:17:05;34.70;36.70
21570;DHT22;57598;50.888;4.746;2023-06-14T12:19:33;34.60;36.50
21570;DHT22;57598;50.888;4.746;2023-06-14T12:22:09;34.60;37.20
21570;DHT22;57598;50.888;4.746;2023-06-14T12:24:37;34.80;35.70
21570;DHT22;57598;50.888;4.746;2023-06-14T12:27:06;34.10;36.00
21570;DHT22;57598;50.888;4.746;2023-06-14T12:29:33;34.30;36.30
21570;DHT22;57598;50.888;4.746;2023-06-14T12:32:02;34.70;36.00
21570;DHT22;57598;50.888;4.746;2023-06-14T12:34:29;34.50;36.10
21570;DHT22;57598;50.888;4.746;2023-06-14T12:36:56;34.50;36.60
21570;DHT22;57598;50.888;4.746;2023-06-14T12:39:24;34.50;36.80
21570;DHT22;57598;50.888;4.746;2023-06-14T12:41:51;34.50;36.80
21570;DHT22;57598;50.888;4.746;2023-06-14T12:44:19;34.50;36.60
21570;DHT22;57598;50.888;4.746;2023-06-14T12:46:46;33.90;36.50
21570;DHT22;57598;50.888;4.746;2023-06-14T12:49:13;33.70;36.90
21570;DHT22;57598;50.888;4.746;2023-06-14T12:51:40;34.40;38.60
21570;DHT22;57598;50.888;4.746;2023-06-14T12:54:07;34.70;37.20
21570;DHT22;57598;50.888;4.746;2023-06-14T12:56:35;34.80;36.70
21570;DHT22;57598;50.888;4.746;2023-06-14T12:59:02;34.30;35.30
21570;DHT22;57598;50.888;4.746;2023-06-14T13:01:30;34.40;35.80
21570;DHT22;57598;50.888;4.746;2023-06-14T13:03:57;34.50;36.30
21570;DHT22;57598;50.888;4.746;2023-06-14T13:06:24;33.90;36.00
21570;DHT22;57598;50.888;4.746;2023-06-14T13:08:51;34.70;36.20
21570;DHT22;57598;50.888;4.746;2023-06-14T13:11:20;34.60;36.30
21570;DHT22;57598;50.888;4.746;2023-06-14T13:13:47;34.50;35.10
21570;DHT22;57598;50.888;4.746;2023-06-14T13:16:14;34.10;35.10
21570;DHT22;57598;50.888;4.746;2023-06-14T13:18:42;34.40;36.30
21570;DHT22;57598;50.888;4.746;2023-06-14T13:21:09;34.40;35.40
21570;DHT22;57598;50.888;4.746;2023-06-14T13:23:36;34.20;35.80
21570;DHT22;57598;50.888;4.746;2023-06-14T13:26:03;34.10;34.70
21570;DHT22;57598;50.888;4.746;2023-06-14T13:28:31;33.50;34.90
21570;DHT22;57598;50.888;4.746;2023-06-14T13:30:58;34.00;34.90
21570;DHT22;57598;50.888;4.746;2023-06-14T13:33:25;33.90;35.40
21570;DHT22;57598;50.888;4.746;2023-06-14T13:35:53;33.40;34.90
21570;DHT22;57598;50.888;4.746;2023-06-14T13:38:20;33.50;34.90
21570;DHT22;57598;50.888;4.746;2023-06-14T13:40:47;33.90;35.10
21570;DHT22;57598;50.888;4.746;2023-06-14T13:43:15;33.90;34.00
21570;DHT22;57598;50.888;4.746;2023-06-14T13:45:42;34.00;34.50
21570;DHT22;57598;50.888;4.746;2023-06-14T13:48:08;34.10;34.50
21570;DHT22;57598;50.888;4.746;2023-06-14T13:50:35;34.00;33.80
21570;DHT22;57598;50.888;4.746;2023-06-14T13:53:04;34.30;35.00
21570;DHT22;57598;50.888;4.746;2023-06-14T13:55:31;34.40;34.10
21570;DHT22;57598;50.888;4.746;2023-06-14T13:57:58;34.30;34.30
21570;DHT22;57598;50.888;4.746;2023-06-14T14:00:25;33.90;34.00
21570;DHT22;57598;50.888;4.746;2023-06-14T14:02:52;34.00;34.50
21570;DHT22;57598;50.888;4.746;2023-06-14T14:05:20;33.70;34.70
21570;DHT22;57598;50.888;4.746;2023-06-14T14:07:51;33.90;34.90
21570;DHT22;57598;50.888;4.746;2023-06-14T14:10:20;33.40;34.40
21570;DHT22;57598;50.888;4.746;2023-06-14T14:12:47;33.90;35.50
21570;DHT22;57598;50.888;4.746;2023-06-14T14:15:14;33.40;34.90
21570;DHT22;57598;50.888;4.746;2023-06-14T14:17:41;33.20;34.90
21570;DHT22;57598;50.888;4.746;2023-06-14T14:20:09;33.50;35.10
21570;DHT22;57598;50.888;4.746;2023-06-14T14:22:38;33.90;34.80
21570;DHT22;57598;50.888;4.746;2023-06-14T14:25:05;34.30;35.00
21570;DHT22;57598;50.888;4.746;2023-06-14T14:27:33;34.50;35.50
21570;DHT22;57598;50.888;4.746;2023-06-14T14:30:01;34.30;34.90
21570;DHT22;57598;50.888;4.746;2023-06-14T14:32:28;33.80;35.10
21570;DHT22;57598;50.888;4.746;2023-06-14T14:34:55;33.80;34.10
21570;DHT22;57598;50.888;4.746;2023-06-14T14:37:22;34.30;35.50
21570;DHT22;57598;50.888;4.746;2023-06-14T14:39:49;34.20;34.20
21570;DHT22;57598;50.888;4.746;2023-06-14T14:42:16;33.30;34.40
21570;DHT22;57598;50.888;4.746;2023-06-14T14:44:45;33.40;35.80
21570;DHT22;57598;50.888;4.746;2023-06-14T14:47:12;33.90;35.30
21570;DHT22;57598;50.888;4.746;2023-06-14T14:49:39;33.60;34.80
21570;DHT22;57598;50.888;4.746;2023-06-14T14:52:07;33.70;34.60
21570;DHT22;57598;50.888;4.746;2023-06-14T14:54:34;34.10;34.50
21570;DHT22;57598;50.888;4.746;2023-06-14T14:57:02;34.10;34.40
21570;DHT22;57598;50.888;4.746;2023-06-14T14:59:29;34.00;35.70
21570;DHT22;57598;50.888;4.746;2023-06-14T15:01:57;34.00;35.20
21570;DHT22;57598;50.888;4.746;2023-06-14T15:04:24;33.70;35.90
21570;DHT22;57598;50.888;4.746;2023-06-14T15:06:51;33.20;36.20
21570;DHT22;57598;50.888;4.746;2023-06-14T15:09:18;32.90;36.90
21570;DHT22;57598;50.888;4.746;2023-06-14T15:11:45;32.50;37.30
21570;DHT22;57598;50.888;4.746;2023-06-14T15:14:12;32.10;37.80
21570;DHT22;57598;50.888;4.746;2023-06-14T15:16:40;31.60;37.30
21570;DHT22;57598;50.888;4.746;2023-06-14T15:19:09;31.40;38.20
21570;DHT22;57598;50.888;4.746;2023-06-14T15:21:36;31.20;38.40
21570;DHT22;57598;50.888;4.746;2023-06-14T15:24:03;31.20;39.70
21570;DHT22;57598;50.888;4.746;2023-06-14T15:26:30;31.20;39.80
21570;DHT22;57598;50.888;4.746;2023-06-14T15:28:57;31.20;39.50
21570;DHT22;57598;50.888;4.746;2023-06-14T15:31:24;30.70;39.30
21570;DHT22;57598;50.888;4.746;2023-06-14T15:33:53;30.90;39.90
21570;DHT22;57598;50.888;4.746;2023-06-14T15:36:21;30.90;40.00
21570;DHT22;57598;50.888;4.746;2023-06-14T15:38:48;31.10;40.30
21570;DHT22;57598;50.888;4.746;2023-06-14T15:41:15;31.30;39.30